Newton Field (59B)
Jackman, ME
Field Elevation: 1178
Lat: 45°37.97N  Long: 70°14.93W
CTAF/Unicom Freq: 122.9000
    
Weather Advisories
2022-11-30   21:36 Z
Altimeter 29.61" Hg
Wind 150° @ 9 KT
Gusts 20 KT
Visibility 6 SM
Ceiling CLR
Present Wx
Temperature 7° C (45° F)
Dewpoint 5° C (41° F)
Relative Humidity 90%
Density Altitude --
Condensation Altitude --
Precip Gauge
Wind Chill: 4° C (39° F)
METAR 59B 302136Z AUTO 15009G20KT VIS 6 SM CLR 07/05 A2961